createdAt,value
2017-12-01T09:34:33.953Z,2392
2017-12-01T09:35:05.999Z,2540
2017-12-01T09:35:38.022Z,2688
2017-12-01T09:36:10.016Z,2388
2017-12-01T09:36:41.960Z,2432
2017-12-01T09:37:13.958Z,2448
2017-12-01T09:37:45.970Z,2536
2017-12-01T09:38:18.034Z,2624
2017-12-01T09:38:50.131Z,2768
2017-12-01T09:39:22.132Z,2656
2017-12-01T09:39:54.173Z,2648
2017-12-01T09:40:26.271Z,2636
2017-12-01T09:40:58.281Z,2496
2017-12-01T09:41:30.322Z,2328
2017-12-01T09:42:02.361Z,2144
2017-12-01T09:42:34.381Z,1980
2017-12-01T09:43:06.360Z,1860
2017-12-01T09:43:38.374Z,1784
2017-12-01T09:44:10.354Z,1776
2017-12-01T09:44:42.364Z,1828
2017-12-01T09:45:14.376Z,1964
2017-12-01T09:45:46.408Z,2164
2017-12-01T09:46:18.441Z,2432
2017-12-01T09:46:50.449Z,2720
2017-12-01T09:47:22.484Z,2980
2017-12-01T09:47:54.480Z,3176
2017-12-01T09:48:26.528Z,3316
2017-12-01T09:48:58.506Z,3668
2017-12-01T09:49:30.557Z,3432
2017-12-01T09:50:02.538Z,3360
2017-12-01T09:50:34.552Z,3284
2017-12-01T09:51:06.579Z,3236
2017-12-01T09:51:38.587Z,3176
2017-12-01T09:52:10.597Z,3096
2017-12-01T09:52:42.588Z,3028
2017-12-01T09:53:14.570Z,2948
2017-12-01T09:53:46.603Z,2868
2017-12-01T09:54:18.611Z,2756
2017-12-01T09:54:50.635Z,2608
2017-12-01T09:55:22.668Z,2512
2017-12-01T09:55:54.715Z,2576
2017-12-01T09:56:26.725Z,3024
2017-12-01T09:56:58.754Z,2892
2017-12-01T09:57:31.589Z,2824
2017-12-01T09:58:03.682Z,2624
2017-12-01T09:58:35.673Z,2704
2017-12-01T09:59:07.727Z,2528
2017-12-01T09:59:39.739Z,2452
2017-12-01T10:00:11.901Z,2508
2017-12-01T10:00:43.841Z,2396
2017-12-01T10:01:15.913Z,2436
2017-12-01T10:01:47.969Z,2272
2017-12-01T10:02:20.042Z,2200
2017-12-01T10:02:52.016Z,2140
2017-12-01T10:03:24.052Z,1948
2017-12-01T10:03:56.037Z,1800
2017-12-01T10:04:28.023Z,1672
2017-12-01T10:05:00.024Z,1596
2017-12-01T10:05:32.136Z,1412
2017-12-01T10:06:04.144Z,1276
2017-12-01T10:06:36.186Z,1176
2017-12-01T10:07:08.191Z,1116
2017-12-01T10:07:40.166Z,1096
2017-12-01T10:08:12.173Z,1104
2017-12-01T10:08:44.276Z,1128
2017-12-01T10:09:16.303Z,1180
2017-12-01T10:09:48.338Z,1236
2017-12-01T10:10:20.325Z,1288
2017-12-01T10:10:52.369Z,1340
2017-12-01T10:11:24.469Z,1396
2017-12-01T10:11:56.500Z,1448
2017-12-01T10:12:28.517Z,1480
2017-12-01T10:13:00.511Z,1520
2017-12-01T10:13:32.604Z,1552
2017-12-01T10:14:04.631Z,1588
2017-12-01T10:14:36.763Z,1612
2017-12-01T10:15:08.802Z,1640
2017-12-01T10:15:40.793Z,1668
2017-12-01T10:16:12.815Z,1676
2017-12-01T10:16:44.816Z,1696
2017-12-01T10:17:16.890Z,1716
2017-12-01T10:17:48.867Z,1732
2017-12-01T10:18:20.879Z,1736
2017-12-01T10:18:52.879Z,1716
2017-12-01T10:19:24.848Z,1688
2017-12-01T10:19:56.868Z,1688
2017-12-01T10:20:28.861Z,1608
2017-12-01T10:21:00.912Z,1540
2017-12-01T10:21:32.939Z,1488
2017-12-01T10:22:04.929Z,1456
2017-12-01T10:22:36.918Z,1448
2017-12-01T10:23:09.582Z,1464
2017-12-01T10:23:41.565Z,1596
2017-12-01T10:24:13.600Z,1700
2017-12-01T10:24:45.606Z,1668
2017-12-01T10:25:18.291Z,1664
2017-12-01T10:25:50.308Z,1612
2017-12-01T10:26:22.318Z,1612
2017-12-01T10:26:54.332Z,1632
2017-12-01T10:27:26.385Z,1600
2017-12-01T10:27:58.477Z,1604
2017-12-01T10:28:30.598Z,1640
2017-12-01T10:29:02.608Z,1708
2017-12-01T10:29:34.698Z,1780
2017-12-01T10:30:06.717Z,1824
2017-12-01T10:30:38.727Z,1844
2017-12-01T10:31:10.888Z,1892
2017-12-01T10:31:43.055Z,2000
2017-12-01T10:32:15.181Z,2012
2017-12-01T10:32:47.159Z,1952
2017-12-01T10:33:19.138Z,1872
2017-12-01T10:33:51.328Z,1728
2017-12-01T10:34:23.317Z,1624
2017-12-01T10:34:55.342Z,1568
2017-12-01T10:35:27.364Z,1520
2017-12-01T10:36:00.311Z,1480
2017-12-01T10:36:32.513Z,1444
2017-12-01T10:37:04.515Z,1408
2017-12-01T10:37:36.514Z,1372
2017-12-01T10:38:08.528Z,1336
2017-12-01T10:38:40.530Z,1304
2017-12-01T10:39:12.558Z,1276
2017-12-01T10:39:44.574Z,1260
2017-12-01T10:40:16.571Z,1260
2017-12-01T10:40:48.580Z,1284
2017-12-01T10:41:20.613Z,1304
2017-12-01T10:41:52.622Z,1344
2017-12-01T10:42:24.717Z,1388
2017-12-01T10:42:56.813Z,1424
2017-12-01T10:43:28.831Z,1448
2017-12-01T10:44:00.849Z,1448
2017-12-01T10:44:32.851Z,1424
2017-12-01T10:45:04.869Z,1396
2017-12-01T10:45:36.916Z,1372
2017-12-01T10:46:09.080Z,1372
2017-12-01T10:46:41.042Z,1376
2017-12-01T10:47:13.050Z,1380
2017-12-01T10:47:45.126Z,1380
2017-12-01T10:48:17.050Z,1376
2017-12-01T10:48:49.087Z,1368
2017-12-01T10:49:21.088Z,1360
2017-12-01T10:49:53.074Z,1340
2017-12-01T10:50:25.109Z,1332
2017-12-01T10:50:57.082Z,1316
2017-12-01T10:51:29.040Z,1296
2017-12-01T10:52:01.092Z,1256
2017-12-01T10:52:33.116Z,1200
2017-12-01T10:53:05.153Z,1132
2017-12-01T10:53:37.296Z,1076
2017-12-01T10:54:09.322Z,1032
2017-12-01T10:54:41.325Z,1012
2017-12-01T10:55:13.358Z,1004
2017-12-01T10:55:45.377Z,1008
2017-12-01T10:56:17.398Z,1012
2017-12-01T10:56:49.426Z,1012
2017-12-01T10:57:21.434Z,1028
2017-12-01T10:57:53.443Z,1052
2017-12-01T10:58:25.495Z,1092
2017-12-01T10:58:57.547Z,1140
2017-12-01T10:59:29.552Z,1188
2017-12-01T11:00:01.571Z,1244
2017-12-01T11:00:33.554Z,1280
2017-12-01T11:01:05.565Z,1308
2017-12-01T11:01:37.576Z,1316
2017-12-01T11:02:09.690Z,1308
2017-12-01T11:02:42.327Z,1284
2017-12-01T11:03:14.314Z,1244
2017-12-01T11:03:46.396Z,1188
2017-12-01T11:04:18.434Z,1136
2017-12-01T11:04:51.389Z,1076
2017-12-01T11:05:23.427Z,1012
2017-12-01T11:05:56.080Z,952
2017-12-01T11:06:28.106Z,904
2017-12-01T11:07:00.084Z,880
2017-12-01T11:07:32.042Z,880
2017-12-01T11:08:04.134Z,884
2017-12-01T11:08:36.169Z,892
2017-12-01T11:09:08.176Z,900
2017-12-01T11:09:40.237Z,904
2017-12-01T11:10:12.277Z,892
2017-12-01T11:10:44.297Z,876
2017-12-01T11:11:16.361Z,860
2017-12-01T11:11:48.445Z,848
2017-12-01T11:12:21.820Z,856
2017-12-01T11:12:54.004Z,872
2017-12-01T11:13:26.006Z,904
2017-12-01T11:13:58.256Z,940
2017-12-01T11:14:30.397Z,980
2017-12-01T11:15:02.528Z,1028
2017-12-01T11:15:34.570Z,1072
2017-12-01T11:16:07.116Z,1112
2017-12-01T11:16:39.272Z,1152
2017-12-01T11:17:11.274Z,1184
2017-12-01T11:17:43.277Z,1200
2017-12-01T11:18:15.264Z,1216
2017-12-01T11:18:50.238Z,1224
2017-12-01T11:19:24.083Z,1236
2017-12-01T11:19:56.139Z,1240
2017-12-01T11:20:28.223Z,1248
2017-12-01T11:21:00.437Z,1248
2017-12-01T11:21:32.440Z,1244
2017-12-01T11:22:04.507Z,1252
2017-12-01T11:22:36.633Z,1240
2017-12-01T11:23:08.785Z,1220
2017-12-01T11:23:40.857Z,1192
2017-12-01T11:24:12.827Z,1168
2017-12-01T11:24:44.839Z,1148
2017-12-01T11:25:16.878Z,1136
2017-12-01T11:25:49.022Z,1128
2017-12-01T11:26:21.165Z,1128
2017-12-01T11:26:53.246Z,1124
2017-12-01T11:27:25.274Z,1124
2017-12-01T11:27:57.328Z,1128
2017-12-01T11:28:29.382Z,1124
2017-12-01T11:29:01.503Z,1112
2017-12-01T11:29:33.622Z,1104
2017-12-01T11:30:05.644Z,1104
2017-12-01T11:30:37.679Z,1108
2017-12-01T11:31:09.721Z,1116
2017-12-01T11:31:41.795Z,1132
2017-12-01T11:32:13.788Z,1144
2017-12-01T11:32:45.817Z,1140
2017-12-01T11:33:17.837Z,1128
2017-12-01T11:33:49.830Z,1100
2017-12-01T11:34:21.871Z,1076
2017-12-01T11:34:54.005Z,1052
2017-12-01T11:35:26.006Z,1028
2017-12-01T11:35:57.994Z,1008
2017-12-01T11:36:29.998Z,988
2017-12-01T11:37:01.992Z,976
2017-12-01T11:37:33.975Z,972
2017-12-01T11:38:05.939Z,972
2017-12-01T11:38:37.949Z,988
2017-12-01T11:39:09.936Z,1008
2017-12-01T11:39:41.924Z,1044
2017-12-01T11:40:13.944Z,1092
2017-12-01T11:40:45.932Z,1132
2017-12-01T11:41:18.739Z,1156
2017-12-01T11:41:50.766Z,1156
2017-12-01T11:42:22.791Z,1136
2017-12-01T11:42:54.757Z,1092
2017-12-01T11:43:26.767Z,1044
2017-12-01T11:43:58.750Z,1000
2017-12-01T11:44:30.740Z,964
2017-12-01T11:45:02.778Z,944
2017-12-01T11:45:34.747Z,948
2017-12-01T11:46:06.808Z,972
2017-12-01T11:46:38.807Z,1008
2017-12-01T11:47:10.819Z,1056
2017-12-01T11:47:42.823Z,1112
2017-12-01T11:48:14.845Z,1152
2017-12-01T11:48:46.879Z,1196
2017-12-01T11:49:18.982Z,1240
2017-12-01T11:49:51.039Z,1280
2017-12-01T11:50:23.123Z,1300
2017-12-01T11:50:55.208Z,1300
2017-12-01T11:51:27.228Z,1280
2017-12-01T11:51:59.217Z,1244
2017-12-01T11:52:31.266Z,1204
2017-12-01T11:53:03.263Z,1176
2017-12-01T11:53:35.272Z,1140
2017-12-01T11:54:07.375Z,1104
2017-12-01T11:54:39.379Z,1068
2017-12-01T11:55:11.362Z,1024
2017-12-01T11:55:43.372Z,980
2017-12-01T11:56:15.369Z,932
2017-12-01T11:56:47.357Z,876
2017-12-01T11:57:19.334Z,840
2017-12-01T11:57:51.358Z,816
2017-12-01T11:58:23.388Z,804
2017-12-01T11:58:55.488Z,804
2017-12-01T11:59:27.451Z,828
2017-12-01T11:59:59.504Z,856
2017-12-01T12:00:31.499Z,892
2017-12-01T12:01:03.564Z,924
2017-12-01T12:01:35.592Z,944
2017-12-01T12:02:07.735Z,952
2017-12-01T12:02:39.752Z,948
2017-12-01T12:03:11.777Z,952
2017-12-01T12:03:43.800Z,976
2017-12-01T12:04:15.800Z,996
2017-12-01T12:04:47.773Z,1020
2017-12-01T12:05:19.773Z,1060
2017-12-01T12:05:51.744Z,1120
2017-12-01T12:06:23.766Z,1192
2017-12-01T12:06:55.740Z,1260
2017-12-01T12:07:27.768Z,1308
2017-12-01T12:07:59.748Z,1344
2017-12-01T12:08:31.850Z,1416
2017-12-01T12:09:03.836Z,1556
2017-12-01T12:09:35.840Z,1736
2017-12-01T12:10:07.843Z,1932
2017-12-01T12:10:39.873Z,2116
2017-12-01T12:11:11.902Z,2292
2017-12-01T12:11:43.856Z,2432
2017-12-01T12:12:15.878Z,2512
2017-12-01T12:12:47.848Z,2528
2017-12-01T12:13:19.819Z,2484
2017-12-01T12:13:51.832Z,2396
2017-12-01T12:14:23.953Z,2276
2017-12-01T12:14:55.929Z,2148
2017-12-01T12:15:27.943Z,2028
2017-12-01T12:15:59.960Z,1948
2017-12-01T12:16:31.962Z,1896
2017-12-01T12:17:04.630Z,1876
2017-12-01T12:17:46.787Z,1868
2017-12-01T12:18:18.793Z,1856
2017-12-01T12:18:50.845Z,1828
2017-12-01T12:19:22.861Z,1760
2017-12-01T12:19:54.869Z,1684
2017-12-01T12:20:26.887Z,1616
2017-12-01T12:20:58.899Z,1572
2017-12-01T12:21:30.948Z,1576
2017-12-01T12:22:02.941Z,1608
2017-12-01T12:22:34.934Z,1616
2017-12-01T12:23:06.957Z,1584
2017-12-01T12:23:38.999Z,1540
2017-12-01T12:24:11.018Z,1508
2017-12-01T12:24:57.236Z,1516
2017-12-01T12:25:31.868Z,1528
2017-12-01T12:26:04.199Z,1512
2017-12-01T12:26:36.207Z,1476
2017-12-01T12:27:08.191Z,1440
2017-12-01T12:27:40.181Z,1408
2017-12-01T12:28:12.212Z,1380
2017-12-01T12:28:44.261Z,1364
2017-12-01T12:29:16.273Z,1348
2017-12-01T12:29:48.313Z,1324
2017-12-01T12:30:20.333Z,1296
2017-12-01T12:30:52.322Z,1268
2017-12-01T12:31:24.313Z,1252
2017-12-01T12:31:56.300Z,1236
2017-12-01T12:32:28.272Z,1224
2017-12-01T12:33:00.258Z,1212
2017-12-01T12:33:32.295Z,1216
2017-12-01T12:34:04.306Z,1224
2017-12-01T12:34:36.341Z,1256
2017-12-01T12:35:08.354Z,1296
2017-12-01T12:35:41.971Z,1352
2017-12-01T12:36:14.006Z,1404
2017-12-01T12:36:46.026Z,1464
2017-12-01T12:37:18.029Z,1536
2017-12-01T12:37:50.051Z,1604
2017-12-01T12:38:22.058Z,1668
2017-12-01T12:38:54.139Z,1684
2017-12-01T12:39:26.144Z,1684
2017-12-01T12:39:58.130Z,1680
2017-12-01T12:40:30.125Z,1660
2017-12-01T12:41:02.113Z,1636
2017-12-01T12:41:34.121Z,1612
2017-12-01T12:42:06.133Z,1572
2017-12-01T12:42:38.158Z,1512
2017-12-01T12:43:10.208Z,1432
2017-12-01T12:43:42.238Z,1340
2017-12-01T12:44:14.250Z,1232
2017-12-01T12:44:50.642Z,1112
2017-12-01T12:45:22.702Z,1016
2017-12-01T12:45:54.733Z,936
2017-12-01T12:46:26.735Z,876
2017-12-01T12:46:58.736Z,824
2017-12-01T12:47:30.776Z,792
2017-12-01T12:48:02.773Z,764
2017-12-01T12:48:34.841Z,752
2017-12-01T12:49:06.858Z,744
2017-12-01T12:49:38.914Z,744
2017-12-01T12:50:10.952Z,760
2017-12-01T12:50:43.051Z,792
2017-12-01T12:51:15.080Z,824
2017-12-01T12:51:47.062Z,864
2017-12-01T12:52:19.093Z,896
2017-12-01T12:52:51.142Z,920
2017-12-01T12:53:23.321Z,936
2017-12-01T12:53:55.345Z,976
2017-12-01T12:54:27.375Z,1036
2017-12-01T12:54:59.393Z,1108
2017-12-01T12:55:31.532Z,1176
2017-12-01T12:56:03.653Z,1248
2017-12-01T12:56:35.767Z,1348
2017-12-01T12:57:07.741Z,1480
2017-12-01T12:57:39.740Z,1620
2017-12-01T12:58:11.820Z,1784
2017-12-01T12:58:43.818Z,1956
2017-12-01T12:59:15.921Z,2160
2017-12-01T12:59:47.981Z,2380
2017-12-01T13:00:19.961Z,2612
2017-12-01T13:00:52.045Z,2832
2017-12-01T13:01:24.134Z,2944
2017-12-01T13:01:56.188Z,2928
2017-12-01T13:02:28.827Z,2736
2017-12-01T13:03:00.982Z,2520
2017-12-01T13:03:33.027Z,2356
2017-12-01T13:04:04.999Z,2292
2017-12-01T13:04:37.026Z,2364
2017-12-01T13:05:09.030Z,2532
2017-12-01T13:05:41.026Z,2724
2017-12-01T13:06:13.090Z,2904
2017-12-01T13:06:45.283Z,3104
2017-12-01T13:07:17.312Z,3348
2017-12-01T13:07:49.381Z,3556
2017-12-01T13:08:21.469Z,3584
2017-12-01T13:08:53.411Z,3620
2017-12-01T13:09:25.362Z,3656
2017-12-01T13:09:57.386Z,3668
2017-12-01T13:10:29.408Z,3680
2017-12-01T13:11:01.430Z,3684
2017-12-01T13:11:33.400Z,3712
2017-12-01T13:12:05.422Z,3704
2017-12-01T13:12:37.456Z,3772
2017-12-01T13:13:09.494Z,3788
2017-12-01T13:13:41.522Z,3816
2017-12-01T13:14:13.513Z,3820
2017-12-01T13:14:45.547Z,4040
2017-12-01T13:15:17.599Z,4368
2017-12-01T13:15:49.652Z,4508
2017-12-01T13:16:21.655Z,5028
2017-12-01T13:16:53.648Z,6500
2017-12-01T13:17:25.620Z,10976
2017-12-01T13:17:57.624Z,12084
2017-12-01T13:18:29.637Z,11436
2017-12-01T13:19:01.781Z,11428
2017-12-01T13:19:33.762Z,11564
2017-12-01T13:20:05.805Z,13656
2017-12-01T13:20:37.758Z,14624
2017-12-01T13:21:09.789Z,14720
2017-12-01T13:21:41.794Z,14400
2017-12-01T13:22:13.898Z,14464
2017-12-01T13:22:45.897Z,15200
2017-12-01T13:23:17.875Z,14848
2017-12-01T13:23:49.929Z,15008
2017-12-01T13:24:21.960Z,15712
2017-12-01T13:24:54.006Z,16576
2017-12-01T13:25:26.046Z,16320
2017-12-01T13:25:58.079Z,14944
2017-12-01T13:26:30.138Z,12568
2017-12-01T13:27:02.139Z,10892
2017-12-01T13:27:34.215Z,11096
2017-12-01T13:28:06.185Z,12912
2017-12-01T13:28:38.214Z,14752
2017-12-01T13:29:10.189Z,15872
2017-12-01T13:29:42.188Z,16096
2017-12-01T13:30:14.259Z,15168
2017-12-01T13:30:46.278Z,13992
2017-12-01T13:31:18.278Z,13216
2017-12-01T13:31:50.305Z,12864
2017-12-01T13:32:22.357Z,11776
2017-12-01T13:32:55.312Z,9804
2017-12-01T13:33:27.403Z,7692
2017-12-01T13:33:59.359Z,6704
2017-12-01T13:34:31.374Z,8120
2017-12-01T13:35:03.454Z,9248
2017-12-01T13:35:35.518Z,10364
2017-12-01T13:36:07.545Z,11080
2017-12-01T13:36:39.547Z,11204
2017-12-01T13:37:11.547Z,11092
2017-12-01T13:37:43.554Z,11336
2017-12-01T13:38:15.529Z,10564
2017-12-01T13:38:47.606Z,9604
2017-12-01T13:39:19.600Z,9096
2017-12-01T13:39:51.716Z,8340
2017-12-01T13:40:23.712Z,6132
2017-12-01T13:40:55.701Z,4876
2017-12-01T13:41:27.752Z,5236
2017-12-01T13:41:59.820Z,6120
2017-12-01T13:42:31.849Z,7828
2017-12-01T13:43:03.873Z,8304
2017-12-01T13:43:35.855Z,7368
2017-12-01T13:44:07.875Z,5668
2017-12-01T13:44:39.881Z,4804
2017-12-01T13:45:11.944Z,4480
2017-12-01T13:45:43.935Z,4372
2017-12-01T13:46:15.979Z,4380
2017-12-01T13:46:47.998Z,4320
2017-12-01T13:47:20.012Z,4288
2017-12-01T13:47:52.036Z,4520
2017-12-01T13:48:24.175Z,4640
2017-12-01T13:48:56.128Z,4596
2017-12-01T13:49:28.108Z,4580
2017-12-01T13:50:00.131Z,4212
2017-12-01T13:50:32.118Z,3796
2017-12-01T13:51:04.170Z,3420
2017-12-01T13:51:36.212Z,3112
2017-12-01T13:52:08.715Z,2904
2017-12-01T13:52:40.711Z,2728
2017-12-01T13:53:12.821Z,2572
2017-12-01T13:53:44.847Z,2456
2017-12-01T13:54:16.869Z,2352
2017-12-01T13:54:48.909Z,2244
2017-12-01T13:55:20.898Z,2140
2017-12-01T13:55:52.846Z,2020
2017-12-01T13:56:24.840Z,1960
2017-12-01T13:56:56.848Z,1932
2017-12-01T13:57:28.884Z,1920
2017-12-01T13:58:00.850Z,1880
2017-12-01T13:58:32.890Z,1816
2017-12-01T13:59:04.900Z,1760
2017-12-01T13:59:36.927Z,1700
2017-12-01T14:00:08.919Z,1644
2017-12-01T14:00:40.986Z,1580
2017-12-01T14:01:13.028Z,1512
2017-12-01T14:01:45.037Z,1464
2017-12-01T14:02:17.099Z,1408
2017-12-01T14:02:49.164Z,1356
2017-12-01T14:03:21.162Z,1324
2017-12-01T14:03:53.207Z,1304
2017-12-01T14:04:25.202Z,1276
2017-12-01T14:04:57.239Z,1244
2017-12-01T14:05:29.909Z,1208
2017-12-01T14:06:01.924Z,1184
2017-12-01T14:06:33.913Z,1168
2017-12-01T14:07:05.935Z,1152
2017-12-01T14:07:37.971Z,1132
2017-12-01T14:08:09.985Z,1108
2017-12-01T14:08:41.997Z,1100
2017-12-01T14:09:14.024Z,1100
2017-12-01T14:09:46.836Z,1088
2017-12-01T14:10:18.883Z,1072
2017-12-01T14:10:50.912Z,1048
2017-12-01T14:11:22.924Z,1012
2017-12-01T14:11:54.962Z,992
2017-12-01T14:12:26.977Z,968
2017-12-01T14:12:58.975Z,944
2017-12-01T14:13:31.051Z,932
2017-12-01T14:14:03.043Z,924
2017-12-01T14:14:35.079Z,912
2017-12-01T14:15:07.157Z,892
2017-12-01T14:15:39.169Z,876
2017-12-01T14:16:11.199Z,864
2017-12-01T14:16:43.394Z,848
2017-12-01T14:17:15.473Z,832
2017-12-01T14:17:47.511Z,816
2017-12-01T14:18:19.508Z,808
2017-12-01T14:18:51.545Z,796
2017-12-01T14:19:23.750Z,788
2017-12-01T14:19:55.771Z,784
2017-12-01T14:20:27.920Z,776
2017-12-01T14:21:00.013Z,768
2017-12-01T14:21:32.057Z,752
2017-12-01T14:22:04.156Z,740
2017-12-01T14:22:36.189Z,724
2017-12-01T14:23:08.191Z,716
2017-12-01T14:23:40.200Z,708
2017-12-01T14:24:12.260Z,700
2017-12-01T14:24:44.367Z,700
2017-12-01T14:25:16.401Z,696
2017-12-01T14:25:48.421Z,708
2017-12-01T14:26:20.406Z,716
2017-12-01T14:26:52.543Z,736
2017-12-01T14:27:24.596Z,760
2017-12-01T14:27:56.792Z,780
2017-12-01T14:28:28.853Z,788
2017-12-01T14:29:00.879Z,788
2017-12-01T14:29:32.861Z,788
2017-12-01T14:30:05.094Z,772
2017-12-01T14:30:37.130Z,752
2017-12-01T14:31:09.347Z,732
2017-12-01T14:31:41.609Z,712
2017-12-01T14:32:13.740Z,704
2017-12-01T14:32:45.773Z,688
2017-12-01T14:33:17.887Z,676
2017-12-01T14:33:49.867Z,660
2017-12-01T14:34:21.924Z,644
2017-12-01T14:34:53.965Z,636
2017-12-01T14:35:25.999Z,624
2017-12-01T14:35:58.026Z,616
2017-12-01T14:36:30.098Z,616
2017-12-01T14:37:02.090Z,612
2017-12-01T14:37:34.163Z,612
2017-12-01T14:38:06.234Z,608
2017-12-01T14:38:38.286Z,592
2017-12-01T14:39:10.397Z,580
2017-12-01T14:39:42.438Z,564
2017-12-01T14:40:14.456Z,548
2017-12-01T14:40:46.519Z,532
2017-12-01T14:41:18.554Z,508
2017-12-01T14:41:50.527Z,496
2017-12-01T14:42:22.576Z,476
2017-12-01T14:42:54.712Z,464
2017-12-01T14:43:26.761Z,452
2017-12-01T14:43:58.866Z,444
2017-12-01T14:44:30.921Z,440
2017-12-01T14:45:03.262Z,432
2017-12-01T14:45:35.259Z,428
2017-12-01T14:46:07.271Z,424
2017-12-01T14:46:39.230Z,412
2017-12-01T14:47:11.245Z,404
2017-12-01T14:47:43.236Z,396
2017-12-01T14:48:15.336Z,388
2017-12-01T14:48:47.436Z,388
2017-12-01T14:49:23.190Z,384
2017-12-01T14:49:55.321Z,380
2017-12-01T14:50:27.483Z,376
2017-12-01T14:50:59.626Z,376
2017-12-01T14:51:31.656Z,368
2017-12-01T14:52:04.653Z,364
2017-12-01T14:52:36.692Z,364
2017-12-01T14:53:13.220Z,356
2017-12-01T14:53:45.471Z,348
2017-12-01T14:54:17.564Z,340
2017-12-01T14:54:49.563Z,336
2017-12-01T14:55:25.302Z,328
2017-12-01T14:55:57.342Z,320
2017-12-01T14:56:29.355Z,316
2017-12-01T14:57:01.353Z,308
2017-12-01T14:57:33.397Z,300
2017-12-01T14:58:05.429Z,296
2017-12-01T14:58:37.421Z,296
2017-12-01T14:59:09.663Z,292
2017-12-01T14:59:41.725Z,284
2017-12-01T15:00:13.748Z,284
2017-12-01T15:00:45.761Z,276
2017-12-01T15:01:17.843Z,272
2017-12-01T15:01:50.897Z,268
2017-12-01T15:02:22.946Z,264
2017-12-01T15:02:54.970Z,252
2017-12-01T15:03:26.978Z,248
2017-12-01T15:03:58.963Z,244
2017-12-01T15:04:30.989Z,236
2017-12-01T15:05:03.021Z,232
2017-12-01T15:05:35.035Z,224
2017-12-01T15:06:07.290Z,220
2017-12-01T15:06:39.405Z,212
2017-12-01T15:07:11.715Z,204
2017-12-01T15:07:43.743Z,200
2017-12-01T15:08:15.730Z,192
2017-12-01T15:08:48.057Z,184
2017-12-01T15:09:20.068Z,172
2017-12-01T15:09:52.351Z,168
2017-12-01T15:10:24.497Z,160
2017-12-01T15:10:56.527Z,152
2017-12-01T15:11:28.529Z,148
2017-12-01T15:12:00.530Z,140
2017-12-01T15:12:32.568Z,136
2017-12-01T15:13:04.607Z,132
2017-12-01T15:13:36.605Z,124
2017-12-01T15:14:09.493Z,120
2017-12-01T15:14:41.976Z,112
2017-12-01T15:15:14.022Z,108
2017-12-01T15:15:46.024Z,104
2017-12-01T15:16:18.048Z,100
2017-12-01T15:16:50.056Z,96
2017-12-01T15:17:22.048Z,92
2017-12-01T15:17:54.059Z,84
2017-12-01T15:18:26.076Z,80
2017-12-01T15:18:58.098Z,76
2017-12-01T15:19:30.143Z,72
2017-12-01T15:20:02.170Z,68
2017-12-01T15:20:34.188Z,64
2017-12-01T15:21:06.130Z,60
2017-12-01T15:21:38.135Z,56
2017-12-01T15:22:10.128Z,52
2017-12-01T15:22:42.130Z,52
2017-12-01T15:23:14.166Z,48
2017-12-01T15:23:46.110Z,44
2017-12-01T15:24:18.054Z,40
2017-12-01T15:24:50.093Z,36
2017-12-01T15:25:22.859Z,36
2017-12-01T15:25:54.843Z,36
2017-12-01T15:26:26.825Z,28
2017-12-01T15:26:58.863Z,32
2017-12-01T15:27:30.850Z,28
2017-12-01T15:28:02.829Z,24
2017-12-01T15:28:34.839Z,24
2017-12-01T15:29:06.891Z,24
2017-12-01T15:29:38.924Z,20
2017-12-01T15:30:10.975Z,16
2017-12-01T15:30:42.970Z,20
2017-12-01T15:31:15.003Z,16
2017-12-01T15:31:47.118Z,16
2017-12-01T15:32:19.138Z,16
2017-12-01T15:32:51.196Z,12
2017-12-01T15:33:23.203Z,12
2017-12-01T15:33:55.196Z,12
2017-12-01T15:34:27.179Z,8
2017-12-01T15:34:59.209Z,8
2017-12-01T15:35:31.209Z,8
2017-12-01T15:36:03.210Z,12
2017-12-01T15:36:35.240Z,8
2017-12-01T15:37:07.251Z,8
2017-12-01T15:37:39.190Z,4
2017-12-01T15:38:11.153Z,8
2017-12-01T15:38:43.196Z,4
2017-12-01T15:39:15.343Z,4
2017-12-01T15:39:47.326Z,4
2017-12-01T15:40:19.335Z,8
2017-12-01T15:40:51.355Z,4
2017-12-01T15:41:23.325Z,0
2017-12-01T15:41:55.357Z,4
2017-12-01T15:42:27.349Z,4
2017-12-01T15:42:59.332Z,0
2017-12-01T15:43:31.290Z,0
2017-12-01T15:44:03.343Z,4
2017-12-01T15:44:35.358Z,4
2017-12-01T15:45:07.500Z,4
2017-12-01T15:45:39.585Z,4
2017-12-01T15:46:11.599Z,0
2017-12-01T15:46:43.580Z,0
2017-12-01T15:47:15.615Z,0
2017-12-01T15:47:47.640Z,0
2017-12-01T15:48:19.647Z,4
2017-12-01T15:48:51.783Z,4
2017-12-01T15:49:23.735Z,4
2017-12-01T15:49:55.751Z,0
2017-12-01T15:50:27.730Z,0
2017-12-01T15:50:59.749Z,0
2017-12-01T15:51:31.778Z,0
2017-12-01T15:52:03.809Z,0
2017-12-01T15:52:35.829Z,0
2017-12-01T15:53:07.857Z,0
2017-12-01T15:53:39.914Z,0
2017-12-01T15:54:11.951Z,0
2017-12-01T15:54:43.972Z,0
2017-12-01T15:55:15.952Z,0
2017-12-01T15:55:48.014Z,0
2017-12-01T15:56:20.005Z,0
2017-12-01T15:56:51.996Z,0
2017-12-01T15:57:23.993Z,0
2017-12-01T15:57:56.013Z,0
2017-12-01T15:58:27.995Z,0
2017-12-01T15:59:00.034Z,0
2017-12-01T15:59:32.009Z,0
2017-12-01T16:00:04.029Z,0
2017-12-01T16:00:36.126Z,0
2017-12-01T16:01:08.154Z,0
2017-12-01T16:01:40.235Z,0
2017-12-01T16:02:12.315Z,0
2017-12-01T16:02:44.347Z,0
2017-12-01T16:03:16.328Z,0
2017-12-01T16:03:48.356Z,0
2017-12-01T16:04:20.457Z,0
2017-12-01T16:04:52.456Z,0
2017-12-01T16:05:24.493Z,0
2017-12-01T16:05:56.634Z,0
2017-12-01T16:06:28.714Z,0
2017-12-01T16:07:00.728Z,0
2017-12-01T16:07:32.791Z,0
2017-12-01T16:08:04.841Z,0
2017-12-01T16:08:36.838Z,0
2017-12-01T16:09:08.883Z,0
2017-12-01T16:09:40.913Z,0
2017-12-01T16:10:12.945Z,0
2017-12-01T16:10:44.939Z,0
2017-12-01T16:11:16.980Z,0
2017-12-01T16:11:49.063Z,0
2017-12-01T16:12:21.111Z,0
2017-12-01T16:12:53.298Z,0
2017-12-01T16:13:25.445Z,0
2017-12-01T16:13:57.467Z,0
2017-12-01T16:14:29.567Z,0
2017-12-01T16:15:01.564Z,0
2017-12-01T16:15:33.544Z,0
2017-12-01T16:16:05.587Z,0
2017-12-01T16:16:37.646Z,0
2017-12-01T16:17:09.666Z,0
2017-12-01T16:17:41.722Z,0
2017-12-01T16:18:13.791Z,0
2017-12-01T16:18:45.810Z,0
2017-12-01T16:19:17.959Z,0
2017-12-01T16:19:49.960Z,0
2017-12-01T16:20:22.058Z,0
2017-12-01T16:20:54.082Z,0
2017-12-01T16:21:26.078Z,0
2017-12-01T16:21:58.054Z,0
2017-12-01T16:22:30.113Z,0
2017-12-01T16:23:02.197Z,0
2017-12-01T16:23:34.263Z,0
2017-12-01T16:24:06.308Z,0
2017-12-01T16:24:38.325Z,0
2017-12-01T16:25:10.376Z,0
2017-12-01T16:25:42.544Z,0
2017-12-01T16:26:14.673Z,0
2017-12-01T16:26:46.684Z,0
2017-12-01T16:27:19.308Z,0
2017-12-01T16:27:52.388Z,0
2017-12-01T16:28:24.441Z,0
2017-12-01T16:28:56.630Z,0
2017-12-01T16:29:28.638Z,0
2017-12-01T16:30:00.781Z,0
2017-12-01T16:30:33.784Z,0
2017-12-01T16:31:05.841Z,0
2017-12-01T16:31:37.979Z,0
2017-12-01T16:32:10.009Z,0
2017-12-01T16:32:42.523Z,0
2017-12-01T16:33:23.352Z,0
2017-12-01T16:33:55.468Z,0
2017-12-01T16:34:28.114Z,0
2017-12-01T16:35:00.147Z,0
2017-12-01T16:35:32.203Z,0
2017-12-01T16:36:04.186Z,0
2017-12-01T16:36:36.204Z,0
2017-12-01T16:37:08.205Z,0
2017-12-01T16:37:40.250Z,0
2017-12-01T16:38:12.288Z,0
2017-12-01T16:38:44.309Z,0
2017-12-01T16:39:16.352Z,0
2017-12-01T16:39:48.358Z,0
2017-12-01T16:40:20.374Z,0
2017-12-01T16:40:52.426Z,0
2017-12-01T16:41:24.409Z,0
2017-12-01T16:41:56.421Z,0
2017-12-01T16:42:28.454Z,0
2017-12-01T16:43:00.506Z,0
2017-12-01T16:43:32.542Z,0
2017-12-01T16:44:04.628Z,0
2017-12-01T16:44:36.702Z,0
2017-12-01T16:45:08.667Z,0
2017-12-01T16:45:40.776Z,0
2017-12-01T16:46:12.771Z,0
2017-12-01T16:46:44.777Z,0
2017-12-01T16:47:16.825Z,0
2017-12-01T16:47:48.833Z,0
2017-12-01T16:48:20.888Z,0
2017-12-01T16:48:53.771Z,0
2017-12-01T16:49:25.797Z,0
2017-12-01T16:49:57.803Z,0
2017-12-01T16:50:29.845Z,0
2017-12-01T16:51:01.899Z,0
2017-12-01T16:51:33.964Z,0
2017-12-01T16:52:06.114Z,0
2017-12-01T16:52:38.115Z,0
2017-12-01T16:53:10.095Z,0
2017-12-01T16:53:42.084Z,0